sensor_id;sensor_type;location;lat;lon;timestamp;pressure;altitude;pressure_sealevel;temperature;humidity
31082;BME280;17737;52.586;13.284;2023-05-03T00:00:26;102182.59;;;8.54;56.71
31082;BME280;17737;52.586;13.284;2023-05-03T00:02:54;102192.72;;;8.50;56.88
31082;BME280;17737;52.586;13.284;2023-05-03T00:05:24;102199.16;;;8.36;57.33
31082;BME280;17737;52.586;13.284;2023-05-03T00:07:53;102190.16;;;8.37;57.72
31082;BME280;17737;52.586;13.284;2023-05-03T00:10:24;102186.22;;;8.30;58.09
31082;BME280;17737;52.586;13.284;2023-05-03T00:12:52;102190.97;;;8.27;57.80
31082;BME280;17737;52.586;13.284;2023-05-03T00:15:21;102194.50;;;8.27;57.88
31082;BME280;17737;52.586;13.284;2023-05-03T00:17:49;102186.44;;;8.27;57.99
31082;BME280;17737;52.586;13.284;2023-05-03T00:20:18;102185.00;;;8.23;58.12
31082;BME280;17737;52.586;13.284;2023-05-03T00:22:46;102185.53;;;8.16;58.31
31082;BME280;17737;52.586;13.284;2023-05-03T00:25:14;102190.41;;;8.11;58.70
31082;BME280;17737;52.586;13.284;2023-05-03T00:27:43;102196.13;;;8.06;58.69
31082;BME280;17737;52.586;13.284;2023-05-03T00:30:12;102197.22;;;8.04;59.05
31082;BME280;17737;52.586;13.284;2023-05-03T00:32:40;102190.50;;;7.98;59.21
31082;BME280;17737;52.586;13.284;2023-05-03T00:35:08;102197.06;;;7.94;59.26
31082;BME280;17737;52.586;13.284;2023-05-03T00:37:37;102195.88;;;7.98;59.14
31082;BME280;17737;52.586;13.284;2023-05-03T00:40:07;102201.44;;;7.95;59.52
31082;BME280;17737;52.586;13.284;2023-05-03T00:42:35;102192.88;;;7.90;59.61
31082;BME280;17737;52.586;13.284;2023-05-03T00:45:06;102189.38;;;7.90;59.67
31082;BME280;17737;52.586;13.284;2023-05-03T00:47:35;102188.50;;;7.89;60.05
31082;BME280;17737;52.586;13.284;2023-05-03T00:50:04;102191.34;;;7.99;59.17
31082;BME280;17737;52.586;13.284;2023-05-03T00:52:35;102192.88;;;7.79;59.28
31082;BME280;17737;52.586;13.284;2023-05-03T00:55:04;102188.97;;;7.83;59.76
31082;BME280;17737;52.586;13.284;2023-05-03T00:57:33;102189.91;;;7.71;59.97
31082;BME280;17737;52.586;13.284;2023-05-03T01:00:02;102190.50;;;7.75;59.75
31082;BME280;17737;52.586;13.284;2023-05-03T01:02:32;102191.66;;;7.60;60.18
31082;BME280;17737;52.586;13.284;2023-05-03T01:05:00;102191.34;;;7.64;60.08
31082;BME280;17737;52.586;13.284;2023-05-03T01:07:34;102203.47;;;7.57;60.45
31082;BME280;17737;52.586;13.284;2023-05-03T01:10:19;102194.28;;;7.49;60.46
31082;BME280;17737;52.586;13.284;2023-05-03T01:12:57;102196.00;;;7.50;60.48
31082;BME280;17737;52.586;13.284;2023-05-03T01:15:40;102196.97;;;7.49;60.81
31082;BME280;17737;52.586;13.284;2023-05-03T01:18:20;102195.31;;;7.35;61.55
31082;BME280;17737;52.586;13.284;2023-05-03T01:20:52;102198.44;;;7.29;61.28
31082;BME280;17737;52.586;13.284;2023-05-03T01:23:39;102195.22;;;7.24;61.62
31082;BME280;17737;52.586;13.284;2023-05-03T01:26:19;102198.47;;;7.16;62.04
31082;BME280;17737;52.586;13.284;2023-05-03T01:28:49;102203.22;;;7.13;62.23
31082;BME280;17737;52.586;13.284;2023-05-03T01:31:21;102203.97;;;7.02;62.55
31082;BME280;17737;52.586;13.284;2023-05-03T01:34:02;102206.31;;;7.07;62.31
31082;BME280;17737;52.586;13.284;2023-05-03T01:36:40;102206.25;;;6.96;62.47
31082;BME280;17737;52.586;13.284;2023-05-03T01:39:13;102210.97;;;6.92;63.12
31082;BME280;17737;52.586;13.284;2023-05-03T01:41:49;102207.63;;;6.89;63.32
31082;BME280;17737;52.586;13.284;2023-05-03T01:44:18;102201.41;;;6.88;63.45
31082;BME280;17737;52.586;13.284;2023-05-03T01:46:49;102213.53;;;6.81;63.43
31082;BME280;17737;52.586;13.284;2023-05-03T01:49:17;102207.97;;;6.72;63.68
31082;BME280;17737;52.586;13.284;2023-05-03T01:51:45;102208.19;;;6.69;63.54
31082;BME280;17737;52.586;13.284;2023-05-03T01:54:13;102211.19;;;6.64;63.76
31082;BME280;17737;52.586;13.284;2023-05-03T01:56:41;102202.50;;;6.61;64.29
31082;BME280;17737;52.586;13.284;2023-05-03T01:59:11;102206.50;;;6.55;64.67
31082;BME280;17737;52.586;13.284;2023-05-03T02:01:39;102206.81;;;6.63;64.54
31082;BME280;17737;52.586;13.284;2023-05-03T02:04:07;102204.97;;;6.51;64.89
31082;BME280;17737;52.586;13.284;2023-05-03T02:06:36;102203.03;;;6.41;65.53
31082;BME280;17737;52.586;13.284;2023-05-03T02:09:04;102210.31;;;6.39;65.52
31082;BME280;17737;52.586;13.284;2023-05-03T02:11:32;102210.53;;;6.36;64.95
31082;BME280;17737;52.586;13.284;2023-05-03T02:14:00;102214.59;;;6.29;66.05
31082;BME280;17737;52.586;13.284;2023-05-03T02:16:29;102224.34;;;6.30;65.89
31082;BME280;17737;52.586;13.284;2023-05-03T02:18:57;102214.59;;;6.29;65.71
31082;BME280;17737;52.586;13.284;2023-05-03T02:21:26;102225.19;;;6.18;66.33
31082;BME280;17737;52.586;13.284;2023-05-03T02:23:54;102221.63;;;6.04;66.69
31082;BME280;17737;52.586;13.284;2023-05-03T02:26:22;102224.22;;;6.06;66.83
31082;BME280;17737;52.586;13.284;2023-05-03T02:28:49;102224.84;;;6.09;66.17
31082;BME280;17737;52.586;13.284;2023-05-03T02:31:17;102226.13;;;6.04;66.53
31082;BME280;17737;52.586;13.284;2023-05-03T02:33:47;102229.19;;;5.98;66.50
31082;BME280;17737;52.586;13.284;2023-05-03T02:36:15;102230.47;;;5.92;67.12
31082;BME280;17737;52.586;13.284;2023-05-03T02:38:43;102236.56;;;5.94;66.69
31082;BME280;17737;52.586;13.284;2023-05-03T02:41:11;102233.78;;;5.96;66.13
31082;BME280;17737;52.586;13.284;2023-05-03T02:43:39;102232.09;;;5.95;66.80
31082;BME280;17737;52.586;13.284;2023-05-03T02:46:07;102227.06;;;5.90;66.65
31082;BME280;17737;52.586;13.284;2023-05-03T02:48:35;102241.16;;;5.92;66.61
31082;BME280;17737;52.586;13.284;2023-05-03T02:51:05;102234.31;;;5.88;67.01
31082;BME280;17737;52.586;13.284;2023-05-03T02:53:33;102238.91;;;5.86;66.89
31082;BME280;17737;52.586;13.284;2023-05-03T02:56:01;102238.69;;;5.89;66.73
31082;BME280;17737;52.586;13.284;2023-05-03T02:58:29;102247.09;;;5.97;66.61
31082;BME280;17737;52.586;13.284;2023-05-03T03:00:57;102244.53;;;5.82;67.01
31082;BME280;17737;52.586;13.284;2023-05-03T03:03:25;102244.00;;;5.77;66.89
31082;BME280;17737;52.586;13.284;2023-05-03T03:05:53;102253.81;;;5.76;66.48
31082;BME280;17737;52.586;13.284;2023-05-03T03:08:23;102248.78;;;5.72;67.00
31082;BME280;17737;52.586;13.284;2023-05-03T03:10:51;102250.50;;;5.73;66.96
31082;BME280;17737;52.586;13.284;2023-05-03T03:13:19;102244.53;;;5.55;67.42
31082;BME280;17737;52.586;13.284;2023-05-03T03:15:47;102246.03;;;5.59;67.31
31082;BME280;17737;52.586;13.284;2023-05-03T03:18:15;102250.97;;;5.65;67.16
31082;BME280;17737;52.586;13.284;2023-05-03T03:20:45;102248.50;;;5.62;66.97
31082;BME280;17737;52.586;13.284;2023-05-03T03:23:13;102255.59;;;5.63;67.51
31082;BME280;17737;52.586;13.284;2023-05-03T03:25:42;102248.94;;;5.56;67.66
31082;BME280;17737;52.586;13.284;2023-05-03T03:28:10;102260.06;;;5.63;67.19
31082;BME280;17737;52.586;13.284;2023-05-03T03:30:38;102262.28;;;5.56;67.60
31082;BME280;17737;52.586;13.284;2023-05-03T03:33:06;102259.72;;;5.55;67.48
31082;BME280;17737;52.586;13.284;2023-05-03T03:35:35;102263.13;;;5.57;67.73
31082;BME280;17737;52.586;13.284;2023-05-03T03:38:03;102270.91;;;5.47;67.17
31082;BME280;17737;52.586;13.284;2023-05-03T03:40:32;102266.22;;;5.37;67.52
31082;BME280;17737;52.586;13.284;2023-05-03T03:43:01;102273.41;;;5.36;67.91
31082;BME280;17737;52.586;13.284;2023-05-03T03:45:29;102265.78;;;5.30;67.89
31082;BME280;17737;52.586;13.284;2023-05-03T03:47:57;102264.81;;;5.31;68.43
31082;BME280;17737;52.586;13.284;2023-05-03T03:50:25;102271.88;;;5.32;68.96
31082;BME280;17737;52.586;13.284;2023-05-03T03:52:54;102281.81;;;5.30;69.86
31082;BME280;17737;52.586;13.284;2023-05-03T03:55:22;102273.50;;;5.35;69.25
31082;BME280;17737;52.586;13.284;2023-05-03T03:57:49;102282.03;;;5.54;68.89
31082;BME280;17737;52.586;13.284;2023-05-03T04:00:19;102285.25;;;5.73;68.56
31082;BME280;17737;52.586;13.284;2023-05-03T04:02:47;102284.16;;;5.89;68.10
31082;BME280;17737;52.586;13.284;2023-05-03T04:05:15;102291.19;;;6.04;67.14
31082;BME280;17737;52.586;13.284;2023-05-03T04:07:43;102284.28;;;6.15;66.56
31082;BME280;17737;52.586;13.284;2023-05-03T04:10:11;102287.72;;;6.29;65.92
31082;BME280;17737;52.586;13.284;2023-05-03T04:12:39;102286.03;;;6.41;65.85
31082;BME280;17737;52.586;13.284;2023-05-03T04:15:08;102293.44;;;6.50;65.62
31082;BME280;17737;52.586;13.284;2023-05-03T04:17:38;102289.19;;;6.72;64.73
31082;BME280;17737;52.586;13.284;2023-05-03T04:20:07;102293.34;;;7.01;63.53
31082;BME280;17737;52.586;13.284;2023-05-03T04:22:37;102295.34;;;7.48;62.14
31082;BME280;17737;52.586;13.284;2023-05-03T04:25:07;102299.44;;;7.77;61.36
31082;BME280;17737;52.586;13.284;2023-05-03T04:27:39;102306.47;;;7.91;60.46
31082;BME280;17737;52.586;13.284;2023-05-03T04:30:08;102309.94;;;8.04;59.21
31082;BME280;17737;52.586;13.284;2023-05-03T04:32:38;102310.03;;;7.91;58.59
31082;BME280;17737;52.586;13.284;2023-05-03T04:35:08;102310.56;;;8.07;59.27
31082;BME280;17737;52.586;13.284;2023-05-03T04:37:38;102312.19;;;8.33;58.52
31082;BME280;17737;52.586;13.284;2023-05-03T04:40:07;102317.53;;;8.57;57.63
31082;BME280;17737;52.586;13.284;2023-05-03T04:42:38;102327.16;;;8.48;57.56
31082;BME280;17737;52.586;13.284;2023-05-03T04:45:07;102325.34;;;8.60;57.64
31082;BME280;17737;52.586;13.284;2023-05-03T04:47:36;102321.91;;;8.58;57.34
31082;BME280;17737;52.586;13.284;2023-05-03T04:50:07;102328.72;;;8.86;56.98
31082;BME280;17737;52.586;13.284;2023-05-03T04:52:36;102323.63;;;8.94;56.41
31082;BME280;17737;52.586;13.284;2023-05-03T04:55:05;102330.22;;;9.01;55.78
31082;BME280;17737;52.586;13.284;2023-05-03T04:57:33;102325.31;;;8.95;55.34
31082;BME280;17737;52.586;13.284;2023-05-03T05:00:01;102332.16;;;8.77;56.45
31082;BME280;17737;52.586;13.284;2023-05-03T05:02:36;102341.59;;;8.11;58.41
31082;BME280;17737;52.586;13.284;2023-05-03T05:05:06;102337.25;;;7.49;59.75
31082;BME280;17737;52.586;13.284;2023-05-03T05:07:36;102338.28;;;7.10;61.36
31082;BME280;17737;52.586;13.284;2023-05-03T05:10:05;102340.09;;;6.97;62.02
31082;BME280;17737;52.586;13.284;2023-05-03T05:12:34;102338.28;;;7.23;61.01
31082;BME280;17737;52.586;13.284;2023-05-03T05:15:02;102339.44;;;8.16;59.03
31082;BME280;17737;52.586;13.284;2023-05-03T05:17:30;102332.88;;;8.20;58.00
31082;BME280;17737;52.586;13.284;2023-05-03T05:19:58;102333.91;;;7.71;59.09
31082;BME280;17737;52.586;13.284;2023-05-03T05:22:28;102339.56;;;7.30;60.40
31082;BME280;17737;52.586;13.284;2023-05-03T05:24:56;102342.25;;;7.30;60.87
31082;BME280;17737;52.586;13.284;2023-05-03T05:27:25;102338.16;;;7.12;61.55
31082;BME280;17737;52.586;13.284;2023-05-03T05:29:53;102344.38;;;7.12;61.68
31082;BME280;17737;52.586;13.284;2023-05-03T05:32:21;102347.28;;;7.09;61.10
31082;BME280;17737;52.586;13.284;2023-05-03T05:34:49;102348.78;;;7.01;63.72
31082;BME280;17737;52.586;13.284;2023-05-03T05:37:20;102358.31;;;7.05;62.99
31082;BME280;17737;52.586;13.284;2023-05-03T05:39:50;102359.09;;;7.32;62.29
31082;BME280;17737;52.586;13.284;2023-05-03T05:42:18;102362.91;;;7.41;61.87
31082;BME280;17737;52.586;13.284;2023-05-03T05:44:46;102357.88;;;7.36;61.36
31082;BME280;17737;52.586;13.284;2023-05-03T05:47:14;102363.03;;;7.52;61.79
31082;BME280;17737;52.586;13.284;2023-05-03T05:49:42;102359.97;;;7.81;60.32
31082;BME280;17737;52.586;13.284;2023-05-03T05:52:10;102360.75;;;7.58;60.45
31082;BME280;17737;52.586;13.284;2023-05-03T05:54:38;102362.94;;;7.28;61.45
31082;BME280;17737;52.586;13.284;2023-05-03T05:57:08;102366.88;;;7.60;61.34
31082;BME280;17737;52.586;13.284;2023-05-03T05:59:36;102371.59;;;7.69;61.99
31082;BME280;17737;52.586;13.284;2023-05-03T06:02:04;102370.09;;;8.01;60.48
31082;BME280;17737;52.586;13.284;2023-05-03T06:04:37;102373.97;;;7.97;60.13
31082;BME280;17737;52.586;13.284;2023-05-03T06:07:05;102371.69;;;7.68;60.55
31082;BME280;17737;52.586;13.284;2023-05-03T06:09:33;102370.25;;;8.11;60.00
31082;BME280;17737;52.586;13.284;2023-05-03T06:12:01;102374.88;;;8.45;58.84
31082;BME280;17737;52.586;13.284;2023-05-03T06:14:31;102377.00;;;8.53;58.99
31082;BME280;17737;52.586;13.284;2023-05-03T06:16:58;102381.63;;;8.51;58.73
31082;BME280;17737;52.586;13.284;2023-05-03T06:19:27;102384.34;;;8.62;58.51
31082;BME280;17737;52.586;13.284;2023-05-03T06:21:55;102385.34;;;8.37;58.45
31082;BME280;17737;52.586;13.284;2023-05-03T06:24:24;102383.56;;;8.48;58.10
31082;BME280;17737;52.586;13.284;2023-05-03T06:26:56;102384.75;;;8.44;58.72
31082;BME280;17737;52.586;13.284;2023-05-03T06:29:25;102381.50;;;8.52;58.68
31082;BME280;17737;52.586;13.284;2023-05-03T06:31:57;102388.94;;;8.48;58.54
31082;BME280;17737;52.586;13.284;2023-05-03T06:34:27;102383.09;;;8.78;58.08
31082;BME280;17737;52.586;13.284;2023-05-03T06:36:55;102374.81;;;8.58;58.26
31082;BME280;17737;52.586;13.284;2023-05-03T06:39:24;102376.69;;;8.68;58.56
31082;BME280;17737;52.586;13.284;2023-05-03T06:41:52;102378.41;;;8.69;57.61
31082;BME280;17737;52.586;13.284;2023-05-03T06:44:20;102381.38;;;8.54;57.63
31082;BME280;17737;52.586;13.284;2023-05-03T06:46:50;102385.81;;;8.55;57.73
31082;BME280;17737;52.586;13.284;2023-05-03T06:49:20;102390.53;;;8.75;57.81
31082;BME280;17737;52.586;13.284;2023-05-03T06:51:48;102377.41;;;8.70;56.95
31082;BME280;17737;52.586;13.284;2023-05-03T06:54:16;102379.25;;;8.70;56.96
31082;BME280;17737;52.586;13.284;2023-05-03T06:56:47;102384.09;;;8.88;56.73
31082;BME280;17737;52.586;13.284;2023-05-03T06:59:16;102382.56;;;9.19;56.08
31082;BME280;17737;52.586;13.284;2023-05-03T07:01:44;102377.44;;;9.27;55.31
31082;BME280;17737;52.586;13.284;2023-05-03T07:04:28;102384.13;;;9.10;55.74
31082;BME280;17737;52.586;13.284;2023-05-03T07:06:56;102385.25;;;9.19;55.59
31082;BME280;17737;52.586;13.284;2023-05-03T07:09:24;102377.53;;;9.14;54.54
31082;BME280;17737;52.586;13.284;2023-05-03T07:11:55;102379.97;;;9.06;54.88
31082;BME280;17737;52.586;13.284;2023-05-03T07:14:23;102379.13;;;9.28;53.49
31082;BME280;17737;52.586;13.284;2023-05-03T07:16:52;102383.53;;;9.18;52.42
31082;BME280;17737;52.586;13.284;2023-05-03T07:19:20;102382.31;;;9.22;52.32
31082;BME280;17737;52.586;13.284;2023-05-03T07:21:50;102391.91;;;9.48;51.92
31082;BME280;17737;52.586;13.284;2023-05-03T07:24:18;102385.41;;;9.84;50.66
31082;BME280;17737;52.586;13.284;2023-05-03T07:26:46;102381.38;;;9.89;49.68
31082;BME280;17737;52.586;13.284;2023-05-03T07:29:14;102383.06;;;9.79;51.18
31082;BME280;17737;52.586;13.284;2023-05-03T07:31:42;102385.28;;;9.85;50.45
31082;BME280;17737;52.586;13.284;2023-05-03T07:34:11;102387.97;;;9.52;49.63
31082;BME280;17737;52.586;13.284;2023-05-03T07:36:39;102386.75;;;9.45;50.53
31082;BME280;17737;52.586;13.284;2023-05-03T07:39:09;102377.47;;;9.38;50.88
31082;BME280;17737;52.586;13.284;2023-05-03T07:41:37;102379.41;;;9.47;51.13
31082;BME280;17737;52.586;13.284;2023-05-03T07:44:06;102379.41;;;9.69;51.19
31082;BME280;17737;52.586;13.284;2023-05-03T07:46:34;102385.88;;;9.89;50.42
31082;BME280;17737;52.586;13.284;2023-05-03T07:49:03;102381.25;;;9.91;51.06
31082;BME280;17737;52.586;13.284;2023-05-03T07:51:34;102388.94;;;9.84;51.10
31082;BME280;17737;52.586;13.284;2023-05-03T07:54:02;102383.81;;;9.92;51.09
31082;BME280;17737;52.586;13.284;2023-05-03T07:56:32;102381.22;;;10.02;50.80
31082;BME280;17737;52.586;13.284;2023-05-03T07:59:00;102374.88;;;10.03;50.44
31082;BME280;17737;52.586;13.284;2023-05-03T08:01:35;102376.47;;;9.94;50.73
31082;BME280;17737;52.586;13.284;2023-05-03T08:04:04;102377.28;;;10.06;50.22
31082;BME280;17737;52.586;13.284;2023-05-03T08:06:32;102385.84;;;10.00;50.47
31082;BME280;17737;52.586;13.284;2023-05-03T08:09:03;102376.47;;;9.83;50.76
31082;BME280;17737;52.586;13.284;2023-05-03T08:11:33;102378.16;;;9.84;50.05
31082;BME280;17737;52.586;13.284;2023-05-03T08:14:02;102369.72;;;9.89;50.58
31082;BME280;17737;52.586;13.284;2023-05-03T08:16:30;102372.66;;;10.08;50.12
31082;BME280;17737;52.586;13.284;2023-05-03T08:18:58;102376.94;;;10.21;49.98
31082;BME280;17737;52.586;13.284;2023-05-03T08:21:26;102371.28;;;10.13;50.30
31082;BME280;17737;52.586;13.284;2023-05-03T08:23:55;102377.69;;;10.75;48.70
31082;BME280;17737;52.586;13.284;2023-05-03T08:26:23;102373.84;;;11.10;48.81
31082;BME280;17737;52.586;13.284;2023-05-03T08:28:55;102365.19;;;10.95;48.10
31082;BME280;17737;52.586;13.284;2023-05-03T08:31:23;102371.59;;;11.15;47.08
31082;BME280;17737;52.586;13.284;2023-05-03T08:33:52;102374.78;;;10.88;48.07
31082;BME280;17737;52.586;13.284;2023-05-03T08:36:20;102367.69;;;10.66;48.98
31082;BME280;17737;52.586;13.284;2023-05-03T08:38:48;102373.97;;;10.56;49.56
31082;BME280;17737;52.586;13.284;2023-05-03T08:41:21;102371.72;;;10.93;48.61
31082;BME280;17737;52.586;13.284;2023-05-03T08:43:58;102371.97;;;10.69;49.03
31082;BME280;17737;52.586;13.284;2023-05-03T08:46:27;102377.00;;;10.94;48.02
31082;BME280;17737;52.586;13.284;2023-05-03T08:48:57;102377.13;;;10.93;48.22
31082;BME280;17737;52.586;13.284;2023-05-03T08:51:27;102378.88;;;11.24;47.56
31082;BME280;17737;52.586;13.284;2023-05-03T08:53:55;102378.84;;;11.44;47.15
31082;BME280;17737;52.586;13.284;2023-05-03T08:56:28;102377.94;;;11.34;46.55
31082;BME280;17737;52.586;13.284;2023-05-03T08:59:01;102382.06;;;11.59;46.11
31082;BME280;17737;52.586;13.284;2023-05-03T09:01:37;102373.97;;;11.59;45.94
31082;BME280;17737;52.586;13.284;2023-05-03T09:04:07;102388.38;;;11.69;45.35
31082;BME280;17737;52.586;13.284;2023-05-03T09:06:37;102384.50;;;11.41;45.72
31082;BME280;17737;52.586;13.284;2023-05-03T09:09:06;102381.88;;;11.51;45.71
31082;BME280;17737;52.586;13.284;2023-05-03T09:11:36;102381.41;;;11.46;45.93
31082;BME280;17737;52.586;13.284;2023-05-03T09:14:11;102390.19;;;11.38;45.96
31082;BME280;17737;52.586;13.284;2023-05-03T09:16:42;102389.72;;;11.54;45.87
31082;BME280;17737;52.586;13.284;2023-05-03T09:19:13;102395.84;;;11.86;44.85
31082;BME280;17737;52.586;13.284;2023-05-03T09:21:44;102388.09;;;11.72;45.09
31082;BME280;17737;52.586;13.284;2023-05-03T09:24:14;102381.28;;;11.68;45.37
31082;BME280;17737;52.586;13.284;2023-05-03T09:26:44;102377.38;;;11.61;45.83
31082;BME280;17737;52.586;13.284;2023-05-03T09:29:27;102383.16;;;11.77;45.27
31082;BME280;17737;52.586;13.284;2023-05-03T09:31:58;102379.91;;;11.83;43.96
31082;BME280;17737;52.586;13.284;2023-05-03T09:34:28;102382.63;;;11.62;44.07
31082;BME280;17737;52.586;13.284;2023-05-03T09:36:57;102377.13;;;11.64;44.13
31082;BME280;17737;52.586;13.284;2023-05-03T09:39:25;102372.50;;;11.85;43.77
31082;BME280;17737;52.586;13.284;2023-05-03T09:41:53;102375.47;;;11.72;44.17
31082;BME280;17737;52.586;13.284;2023-05-03T09:44:39;102383.56;;;12.12;43.84
31082;BME280;17737;52.586;13.284;2023-05-03T09:47:09;102371.50;;;12.45;42.68
31082;BME280;17737;52.586;13.284;2023-05-03T09:49:38;102375.38;;;12.61;43.38
31082;BME280;17737;52.586;13.284;2023-05-03T09:52:07;102375.34;;;12.90;42.93
31082;BME280;17737;52.586;13.284;2023-05-03T09:54:35;102375.50;;;12.50;42.39
31082;BME280;17737;52.586;13.284;2023-05-03T09:57:05;102371.78;;;12.32;43.32
31082;BME280;17737;52.586;13.284;2023-05-03T09:59:37;102383.47;;;12.42;43.28
31082;BME280;17737;52.586;13.284;2023-05-03T10:02:06;102373.38;;;12.54;43.08
31082;BME280;17737;52.586;13.284;2023-05-03T10:04:40;102361.38;;;12.94;43.48
31082;BME280;17737;52.586;13.284;2023-05-03T10:07:13;102365.38;;;13.09;42.92
31082;BME280;17737;52.586;13.284;2023-05-03T10:09:45;102375.34;;;12.42;43.21
31082;BME280;17737;52.586;13.284;2023-05-03T10:12:14;102369.09;;;12.70;43.64
31082;BME280;17737;52.586;13.284;2023-05-03T10:14:46;102373.22;;;12.46;43.19
31082;BME280;17737;52.586;13.284;2023-05-03T10:17:20;102369.81;;;12.63;43.88
31082;BME280;17737;52.586;13.284;2023-05-03T10:20:18;102365.53;;;13.17;42.43
31082;BME280;17737;52.586;13.284;2023-05-03T10:23:07;102366.97;;;13.49;43.62
31082;BME280;17737;52.586;13.284;2023-05-03T10:25:39;102365.53;;;13.17;41.47
31082;BME280;17737;52.586;13.284;2023-05-03T10:28:42;102367.53;;;12.87;41.89
31082;BME280;17737;52.586;13.284;2023-05-03T10:34:24;102370.91;;;12.89;40.31
31082;BME280;17737;52.586;13.284;2023-05-03T10:37:00;102370.84;;;13.37;40.72
31082;BME280;17737;52.586;13.284;2023-05-03T10:39:29;102351.88;;;12.90;42.05
31082;BME280;17737;52.586;13.284;2023-05-03T10:41:58;102359.75;;;13.40;42.11
31082;BME280;17737;52.586;13.284;2023-05-03T10:44:37;102361.97;;;13.54;40.63
31082;BME280;17737;52.586;13.284;2023-05-03T10:47:12;102364.19;;;13.68;41.52
31082;BME280;17737;52.586;13.284;2023-05-03T10:49:41;102353.16;;;13.52;40.40
31082;BME280;17737;52.586;13.284;2023-05-03T10:52:44;102351.63;;;13.40;41.22
31082;BME280;17737;52.586;13.284;2023-05-03T10:55:13;102351.66;;;13.30;41.55
31082;BME280;17737;52.586;13.284;2023-05-03T10:57:44;102347.22;;;13.39;40.71
31082;BME280;17737;52.586;13.284;2023-05-03T11:00:16;102343.47;;;14.03;40.53
31082;BME280;17737;52.586;13.284;2023-05-03T11:03:29;102348.88;;;13.49;39.64
31082;BME280;17737;52.586;13.284;2023-05-03T11:06:03;102343.16;;;13.52;40.76
31082;BME280;17737;52.586;13.284;2023-05-03T11:08:31;102346.44;;;13.83;40.44
31082;BME280;17737;52.586;13.284;2023-05-03T11:11:03;102347.63;;;13.80;40.63
31082;BME280;17737;52.586;13.284;2023-05-03T11:13:35;102343.22;;;13.97;40.27
31082;BME280;17737;52.586;13.284;2023-05-03T11:16:04;102342.19;;;13.80;40.37
31082;BME280;17737;52.586;13.284;2023-05-03T11:18:35;102335.50;;;13.75;40.29
31082;BME280;17737;52.586;13.284;2023-05-03T11:21:03;102336.28;;;13.31;40.64
31082;BME280;17737;52.586;13.284;2023-05-03T11:23:31;102335.03;;;13.89;39.41
31082;BME280;17737;52.586;13.284;2023-05-03T11:25:59;102328.28;;;13.66;39.15
31082;BME280;17737;52.586;13.284;2023-05-03T11:28:27;102331.41;;;13.34;39.66
31082;BME280;17737;52.586;13.284;2023-05-03T11:30:55;102331.16;;;13.18;40.83
31082;BME280;17737;52.586;13.284;2023-05-03T11:33:24;102332.38;;;12.87;41.12
31082;BME280;17737;52.586;13.284;2023-05-03T11:35:55;102323.91;;;13.18;40.74
31082;BME280;17737;52.586;13.284;2023-05-03T11:38:23;102321.22;;;13.18;40.29
31082;BME280;17737;52.586;13.284;2023-05-03T11:40:51;102323.81;;;13.10;40.94
31082;BME280;17737;52.586;13.284;2023-05-03T11:43:19;102316.81;;;12.98;40.67
31082;BME280;17737;52.586;13.284;2023-05-03T11:45:50;102317.69;;;13.08;40.29
31082;BME280;17737;52.586;13.284;2023-05-03T11:48:21;102317.00;;;12.78;40.16
31082;BME280;17737;52.586;13.284;2023-05-03T11:50:52;102317.16;;;12.76;40.61
31082;BME280;17737;52.586;13.284;2023-05-03T11:53:24;102314.41;;;13.42;40.54
31082;BME280;17737;52.586;13.284;2023-05-03T11:55:53;102312.69;;;14.04;39.05
31082;BME280;17737;52.586;13.284;2023-05-03T11:58:23;102316.75;;;13.91;38.27
31082;BME280;17737;52.586;13.284;2023-05-03T12:00:53;102319.31;;;14.10;37.63
31082;BME280;17737;52.586;13.284;2023-05-03T12:03:23;102312.69;;;14.04;38.24
31082;BME280;17737;52.586;13.284;2023-05-03T12:05:57;102308.06;;;13.87;38.51
31082;BME280;17737;52.586;13.284;2023-05-03T12:08:31;102313.13;;;14.00;38.43
31082;BME280;17737;52.586;13.284;2023-05-03T12:11:05;102310.47;;;14.53;38.19
31082;BME280;17737;52.586;13.284;2023-05-03T12:13:36;102309.41;;;14.18;37.89
31082;BME280;17737;52.586;13.284;2023-05-03T12:16:07;102308.81;;;14.24;38.96
31082;BME280;17737;52.586;13.284;2023-05-03T12:18:47;102299.00;;;14.41;38.69
31082;BME280;17737;52.586;13.284;2023-05-03T12:21:18;102301.59;;;14.15;38.77
31082;BME280;17737;52.586;13.284;2023-05-03T12:23:52;102302.41;;;14.43;38.96
31082;BME280;17737;52.586;13.284;2023-05-03T12:26:22;102300.16;;;14.99;38.49
31082;BME280;17737;52.586;13.284;2023-05-03T12:28:52;102298.56;;;14.71;37.50
31082;BME280;17737;52.586;13.284;2023-05-03T12:31:22;102286.75;;;14.19;38.57
31082;BME280;17737;52.586;13.284;2023-05-03T12:33:54;102296.59;;;14.38;38.77
31082;BME280;17737;52.586;13.284;2023-05-03T12:36:42;102295.88;;;14.01;39.77
31082;BME280;17737;52.586;13.284;2023-05-03T12:39:15;102291.41;;;14.27;40.00
31082;BME280;17737;52.586;13.284;2023-05-03T12:41:47;102286.19;;;14.16;39.92
31082;BME280;17737;52.586;13.284;2023-05-03T12:44:18;102291.09;;;14.65;39.00
31082;BME280;17737;52.586;13.284;2023-05-03T12:46:49;102288.16;;;14.41;39.80
31082;BME280;17737;52.586;13.284;2023-05-03T12:49:18;102297.09;;;14.24;38.99
31082;BME280;17737;52.586;13.284;2023-05-03T12:51:50;102293.53;;;14.23;39.11
31082;BME280;17737;52.586;13.284;2023-05-03T12:54:27;102289.94;;;14.50;38.43
31082;BME280;17737;52.586;13.284;2023-05-03T12:56:59;102287.13;;;14.24;38.51
31082;BME280;17737;52.586;13.284;2023-05-03T12:59:34;102282.34;;;14.36;39.02
31082;BME280;17737;52.586;13.284;2023-05-03T13:02:08;102292.88;;;14.21;39.92
31082;BME280;17737;52.586;13.284;2023-05-03T13:04:40;102292.16;;;14.55;39.75